Time;durP1;ratioP1;P1;durP2;ratioP2;P2;SDS_P1;SDS_P2;PMS_P1;PMS_P2;Temp;Humidity;BMP_temperature;BMP_pressure;BME280_temperature;BME280_humidity;BME280_pressure;Samples;Min_cycle;Max_cycle;Signal;HPM_P1;HPM_P2
2023/08/01 00:00:19;;;;;;;0.10;0.10;;;;;;;22.52;100.00;99857.06;10502888;28;20071;-77
2023/08/01 00:05:21;;;;;;;0.10;0.10;;;;;;;22.87;100.00;99852.13;10507871;28;20503;-76
2023/08/01 00:10:23;;;;;;;1.58;0.65;;;;;;;23.55;100.00;99832.59;10518606;28;20044;-77
2023/08/01 00:15:24;;;;;;;0.32;0.03;;;;;;;23.60;100.00;99835.88;10502663;28;20048;-76
2023/08/01 00:20:26;;;;;;;1.48;0.10;;;;;;;23.86;100.00;99815.41;10531035;28;20388;-76
2023/08/01 00:25:28;;;;;;;0.00;0.00;;;;;;;24.04;100.00;99822.47;10536251;28;20127;-76
2023/08/01 00:30:29;;;;;;;0.05;0.05;;;;;;;23.89;100.00;99820.53;10520405;28;20406;-76
2023/08/01 00:35:31;;;;;;;0.15;0.08;;;;;;;24.17;100.00;99816.59;10519066;28;20044;-77
2023/08/01 00:40:34;;;;;;;0.30;0.25;;;;;;;23.48;100.00;99823.28;10518463;28;20121;-76
2023/08/01 00:45:35;;;;;;;0.32;0.20;;;;;;;23.76;100.00;99815.84;10518677;28;20040;-76
2023/08/01 00:50:39;;;;;;;10.98;0.60;;;;;;;24.03;100.00;99802.34;10525465;28;20094;-76
2023/08/01 00:55:41;;;;;;;0.40;0.30;;;;;;;22.73;100.00;99797.59;10525897;28;20048;-76
2023/08/01 01:00:42;;;;;;;0.30;0.20;;;;;;;23.48;100.00;99794.38;10526015;28;20044;-76
2023/08/01 01:06:09;;;;;;;0.15;0.15;;;;;;;23.65;100.00;99797.06;10520190;28;20097;-75
2023/08/01 01:11:10;;;;;;;0.13;0.13;;;;;;;23.72;100.00;99793.22;10497788;28;20048;-76
2023/08/01 01:16:12;;;;;;;0.52;0.38;;;;;;;23.79;100.00;99782.44;10523670;28;20432;-76
2023/08/01 01:21:14;;;;;;;0.70;0.70;;;;;;;23.93;100.00;99769.53;10520950;28;20498;-76
2023/08/01 01:26:20;;;;;;;0.08;0.08;;;;;;;23.91;100.00;99774.81;10521624;28;20054;-76
2023/08/01 01:31:22;;;;;;;0.70;0.25;;;;;;;24.08;100.00;99774.06;10524097;28;20074;-76
2023/08/01 01:36:24;;;;;;;2.05;0.38;;;;;;;23.53;100.00;99768.72;10524352;28;20376;-75
2023/08/01 01:41:26;;;;;;;0.05;0.03;;;;;;;23.77;100.00;99758.84;10523395;28;20044;-76
2023/08/01 01:46:28;;;;;;;0.30;0.03;;;;;;;23.84;100.00;99754.16;10523564;28;20117;-76
2023/08/01 01:51:30;;;;;;;0.20;0.15;;;;;;;24.05;100.00;99753.13;10515056;28;20044;-76
2023/08/01 01:56:33;;;;;;;0.10;0.10;;;;;;;24.31;100.00;99763.31;10522493;28;20058;-76
2023/08/01 02:01:35;;;;;;;0.00;0.00;;;;;;;23.82;100.00;99771.75;10524205;28;20052;-76
2023/08/01 02:06:37;;;;;;;0.00;0.00;;;;;;;23.26;100.00;99761.19;10537389;28;20032;-77
2023/08/01 02:11:40;;;;;;;0.00;0.00;;;;;;;23.16;100.00;99771.19;10522220;28;20411;-76
2023/08/01 02:16:42;;;;;;;0.40;0.32;;;;;;;23.08;100.00;99753.16;10522145;28;20054;-77
2023/08/01 02:21:44;;;;;;;1.48;0.60;;;;;;;22.81;100.00;99742.97;10505852;28;20046;-76
2023/08/01 02:26:45;;;;;;;0.10;0.00;;;;;;;22.85;100.00;99737.56;10502045;28;20043;-76
2023/08/01 02:31:47;;;;;;;0.28;0.00;;;;;;;22.89;100.00;99734.75;10517628;28;20046;-76
2023/08/01 02:36:49;;;;;;;0.28;0.25;;;;;;;22.93;100.00;99741.59;10520839;28;20504;-76
2023/08/01 02:41:50;;;;;;;0.00;0.00;;;;;;;22.67;100.00;99737.47;10520565;28;20044;-76
2023/08/01 02:46:52;;;;;;;0.10;0.10;;;;;;;22.53;100.00;99748.53;10520121;28;20045;-76
2023/08/01 02:51:54;;;;;;;0.43;0.30;;;;;;;22.63;100.00;99749.00;10519874;28;20044;-76
2023/08/01 02:56:56;;;;;;;0.08;0.08;;;;;;;23.07;100.00;99753.25;10503292;28;20479;-76
2023/08/01 03:01:57;;;;;;;0.20;0.20;;;;;;;22.70;100.00;99750.44;10519620;28;20048;-76
2023/08/01 03:06:59;;;;;;;0.47;0.20;;;;;;;22.98;100.00;99739.59;10503146;28;20050;-75
2023/08/01 03:12:01;;;;;;;0.98;0.63;;;;;;;22.93;100.00;99751.22;10518499;28;20048;-76
2023/08/01 03:17:03;;;;;;;0.00;0.00;;;;;;;22.82;100.00;99755.16;10518973;28;20406;-76
2023/08/01 03:22:04;;;;;;;0.10;0.10;;;;;;;22.62;100.00;99763.03;10519500;28;20040;-76
2023/08/01 03:27:06;;;;;;;0.90;0.50;;;;;;;22.79;100.00;99755.31;10505288;28;20078;-76
2023/08/01 03:32:08;;;;;;;0.08;0.03;;;;;;;22.89;100.00;99760.16;10489621;28;20138;-76
2023/08/01 03:37:09;;;;;;;0.03;0.03;;;;;;;22.64;100.00;99763.84;10519164;28;20590;-76
2023/08/01 03:42:12;;;;;;;0.43;0.43;;;;;;;22.37;100.00;99768.44;10502417;28;20483;-76
2023/08/01 03:47:14;;;;;;;0.95;0.57;;;;;;;22.80;100.00;99762.28;10518014;28;20040;-76
2023/08/01 03:52:16;;;;;;;0.40;0.30;;;;;;;22.58;100.00;99750.97;10517441;28;20050;-75
2023/08/01 03:57:17;;;;;;;1.23;0.80;;;;;;;22.86;100.00;99757.66;10502076;28;20122;-76
2023/08/01 04:02:19;;;;;;;1.13;0.40;;;;;;;22.47;100.00;99759.31;10518973;28;20059;-76
2023/08/01 04:07:20;;;;;;;0.65;0.65;;;;;;;22.76;100.00;99760.69;10525141;28;20032;-76
2023/08/01 04:12:22;;;;;;;0.13;0.10;;;;;;;23.37;100.00;99756.28;10532182;28;20043;-76
2023/08/01 04:17:24;;;;;;;0.55;0.40;;;;;;;22.90;100.00;99761.84;10505899;28;20418;-76
2023/08/01 04:22:25;;;;;;;1.48;0.50;;;;;;;23.17;100.00;99758.94;10522436;28;20071;-76
2023/08/01 04:27:27;;;;;;;1.58;0.38;;;;;;;23.01;100.00;99764.88;10528157;28;20054;-76
2023/08/01 04:32:29;;;;;;;2.45;1.20;;;;;;;23.00;100.00;99776.28;10543660;28;20040;-76
2023/08/01 04:37:31;;;;;;;1.08;0.98;;;;;;;23.04;100.00;99774.38;10525801;28;20047;-76
2023/08/01 04:42:32;;;;;;;0.20;0.10;;;;;;;22.87;100.00;99773.34;10525798;28;20130;-76
2023/08/01 04:47:35;;;;;;;0.32;0.28;;;;;;;23.57;100.00;99767.66;10525818;28;20380;-77
2023/08/01 04:52:37;;;;;;;0.17;0.17;;;;;;;23.35;100.00;99762.53;10524899;28;20048;-76
2023/08/01 04:57:39;;;;;;;0.22;0.22;;;;;;;22.42;100.00;99782.25;10525006;28;20051;-76
2023/08/01 05:02:41;;;;;;;1.05;0.90;;;;;;;23.01;100.00;99774.53;10508071;28;20070;-76
2023/08/01 05:07:43;;;;;;;0.00;0.00;;;;;;;23.06;100.00;99780.44;10524722;28;20565;-76
2023/08/01 05:12:44;;;;;;;0.65;0.28;;;;;;;23.82;100.00;99777.03;10524833;28;20113;-76
2023/08/01 05:17:46;;;;;;;0.00;0.00;;;;;;;23.40;100.00;99773.69;10506889;28;20040;-76
2023/08/01 05:22:48;;;;;;;0.05;0.05;;;;;;;23.97;100.00;99775.50;10523568;28;20494;-76
2023/08/01 05:27:49;;;;;;;0.60;0.43;;;;;;;23.04;100.00;99780.50;10510239;28;20514;-76
2023/08/01 05:32:51;;;;;;;0.47;0.40;;;;;;;23.18;100.00;99786.97;10505824;28;20417;-76
2023/08/01 05:37:54;;;;;;;0.32;0.32;;;;;;;22.69;100.00;99795.16;10541006;28;20402;-76
2023/08/01 05:42:55;;;;;;;0.10;0.10;;;;;;;23.73;100.00;99794.09;10541406;28;20040;-75
2023/08/01 05:47:57;;;;;;;0.32;0.30;;;;;;;24.19;100.00;99801.59;10511284;28;20032;-76
2023/08/01 05:52:59;;;;;;;0.30;0.30;;;;;;;23.63;100.00;99814.72;10506037;28;20047;-75
2023/08/01 05:58:00;;;;;;;0.57;0.22;;;;;;;23.47;100.00;99819.78;10521549;28;20131;-76
2023/08/01 06:03:02;;;;;;;0.20;0.20;;;;;;;23.51;100.00;99816.13;10522430;28;20074;-76
2023/08/01 06:08:06;;;;;;;1.05;1.00;;;;;;;23.01;100.00;99804.28;10540005;28;20062;-76
2023/08/01 06:13:08;;;;;;;0.63;0.28;;;;;;;23.10;100.00;99816.13;10504835;28;20052;-76
2023/08/01 06:18:11;;;;;;;0.90;0.30;;;;;;;23.02;100.00;99813.88;10521319;28;20059;-76
2023/08/01 06:23:13;;;;;;;0.68;0.28;;;;;;;24.45;100.00;99812.66;10517285;28;20048;-77
2023/08/01 06:28:15;;;;;;;5.80;0.80;;;;;;;24.22;100.00;99817.25;10504031;28;20322;-75
2023/08/01 06:33:17;;;;;;;0.30;0.22;;;;;;;23.56;100.00;99821.19;10504455;28;20048;-76
2023/08/01 06:38:19;;;;;;;0.32;0.20;;;;;;;23.28;100.00;99806.63;10517163;28;20039;-75
2023/08/01 06:43:20;;;;;;;1.20;0.45;;;;;;;23.94;100.00;99815.91;10519810;28;20054;-76
2023/08/01 06:48:24;;;;;;;0.63;0.40;;;;;;;23.69;100.00;99817.06;10521145;28;20044;-75
2023/08/01 06:53:25;;;;;;;0.15;0.10;;;;;;;24.12;100.00;99822.13;10496456;28;20126;-76
2023/08/01 06:58:27;;;;;;;1.35;0.40;;;;;;;23.96;100.00;99816.72;10494648;28;20510;-75
2023/08/01 07:03:29;;;;;;;0.52;0.32;;;;;;;23.95;100.00;99815.00;10519344;28;20407;-75
2023/08/01 07:08:32;;;;;;;0.40;0.22;;;;;;;23.69;100.00;99809.16;10502829;28;20466;-77
2023/08/01 07:13:33;;;;;;;0.40;0.38;;;;;;;24.25;100.00;99819.72;10537474;28;20486;-77
2023/08/01 07:18:35;;;;;;;0.57;0.32;;;;;;;23.48;100.00;99825.91;10512336;28;20040;-75
2023/08/01 07:23:37;;;;;;;1.73;1.00;;;;;;;24.08;100.00;99821.41;10517471;28;20487;-76
2023/08/01 07:28:38;;;;;;;0.10;0.10;;;;;;;23.93;100.00;99811.63;10517790;28;20390;-76
2023/08/01 07:33:40;;;;;;;0.82;0.68;;;;;;;24.32;100.00;99813.22;10536035;28;20043;-76
2023/08/01 07:38:42;;;;;;;0.47;0.40;;;;;;;23.99;100.00;99819.22;10500997;28;20044;-76
2023/08/01 07:43:43;;;;;;;0.20;0.20;;;;;;;24.39;100.00;99821.69;10516346;28;20055;-76
2023/08/01 07:48:45;;;;;;;1.00;0.85;;;;;;;24.48;100.00;99823.00;10500531;28;20040;-76
2023/08/01 07:53:47;;;;;;;0.45;0.28;;;;;;;24.65;100.00;99815.13;10517738;28;20090;-75
2023/08/01 07:58:48;;;;;;;0.20;0.20;;;;;;;24.25;100.00;99832.88;10517334;28;20470;-78
2023/08/01 08:03:50;;;;;;;1.05;0.28;;;;;;;23.62;100.00;99844.56;10519188;28;20052;-76
2023/08/01 08:08:51;;;;;;;0.75;0.22;;;;;;;23.50;100.00;99835.44;10492130;28;20439;-76
2023/08/01 08:13:53;;;;;;;0.15;0.13;;;;;;;24.74;100.00;99828.81;10516714;28;20051;-76
2023/08/01 08:18:55;;;;;;;0.10;0.10;;;;;;;24.65;100.00;99833.56;10516084;28;20037;-76
2023/08/01 08:23:57;;;;;;;0.10;0.10;;;;;;;24.34;100.00;99837.72;10499285;28;20044;-76
2023/08/01 08:28:59;;;;;;;0.10;0.10;;;;;;;24.98;100.00;99838.06;10515747;28;20135;-76
2023/08/01 08:34:01;;;;;;;0.00;0.00;;;;;;;25.83;100.00;99840.69;10513506;28;20040;-76
2023/08/01 08:39:03;;;;;;;0.17;0.17;;;;;;;25.10;100.00;99843.66;10515487;28;20101;-74
2023/08/01 08:44:08;;;;;;;5.93;0.63;;;;;;;25.63;100.00;99839.13;10515373;28;20439;-76
2023/08/01 08:49:11;;;;;;;0.30;0.20;;;;;;;25.03;100.00;99833.44;10515658;28;20040;-75
2023/08/01 08:54:14;;;;;;;0.00;0.00;;;;;;;25.01;100.00;99831.81;10503396;28;20044;-76
2023/08/01 08:59:16;;;;;;;2.20;0.25;;;;;;;25.13;100.00;99830.34;10532458;28;20056;-76
2023/08/01 09:04:17;;;;;;;0.30;0.30;;;;;;;23.28;100.00;99862.69;10498888;28;20052;-77
2023/08/01 09:09:19;;;;;;;0.20;0.20;;;;;;;23.64;100.00;99863.75;10502375;28;20402;-77
2023/08/01 09:14:21;;;;;;;0.05;0.05;;;;;;;23.61;100.00;99848.09;10541091;28;20054;-77
2023/08/01 09:19:24;;;;;;;0.00;0.00;;;;;;;25.42;100.00;99843.78;10503715;28;20050;-76
2023/08/01 09:24:26;;;;;;;1.17;0.30;;;;;;;25.59;100.00;99849.00;10504840;28;20407;-75
2023/08/01 09:29:28;;;;;;;0.85;0.45;;;;;;;25.66;100.00;99854.81;10503444;28;20403;-76
2023/08/01 09:34:30;;;;;;;0.10;0.10;;;;;;;25.43;100.00;99858.69;10503802;28;20447;-76
2023/08/01 09:39:33;;;;;;;0.35;0.10;;;;;;;25.44;100.00;99860.38;10516350;28;20044;-75
2023/08/01 09:44:36;;;;;;;0.38;0.20;;;;;;;24.71;100.00;99867.53;10519708;28;20093;-76
2023/08/01 09:49:47;;;;;;;0.25;0.20;;;;;;;26.38;100.00;99862.34;10520221;28;20054;-76
2023/08/01 09:54:49;;;;;;;0.10;0.10;;;;;;;25.68;100.00;99866.13;10520533;28;20415;-76
2023/08/01 09:59:50;;;;;;;0.10;0.10;;;;;;;25.83;100.00;99877.63;10500936;28;20601;-75
2023/08/01 10:04:54;;;;;;;0.10;0.05;;;;;;;25.26;100.00;99873.56;10504405;28;20395;-76
2023/08/01 10:09:59;;;;;;;0.47;0.30;;;;;;;24.64;100.00;99871.34;10514102;28;20048;-76
2023/08/01 10:15:03;;;;;;;0.80;0.13;;;;;;;25.87;100.00;99858.06;10539112;28;20050;-75
2023/08/01 10:20:06;;;;;;;0.52;0.30;;;;;;;26.13;100.00;99863.72;10503366;28;20134;-76
2023/08/01 10:25:10;;;;;;;0.00;0.00;;;;;;;26.28;100.00;99867.31;10521152;28;20056;-76
2023/08/01 10:30:11;;;;;;;0.00;0.00;;;;;;;26.16;100.00;99874.13;10521406;28;20055;-75
2023/08/01 10:35:13;;;;;;;0.00;0.00;;;;;;;26.99;100.00;99870.31;10538652;28;20088;-76
2023/08/01 10:40:15;;;;;;;1.45;0.32;;;;;;;27.85;100.00;99875.66;10521244;28;20036;-75
2023/08/01 10:45:24;;;;;;;0.00;0.00;;;;;;;27.28;100.00;99871.19;10499411;28;20508;-76
2023/08/01 10:50:29;;;;;;;0.08;0.00;;;;;;;26.05;100.00;99887.00;10521120;28;20040;-77
2023/08/01 10:55:42;;;;;;;0.32;0.10;;;;;;;26.35;100.00;99883.63;10521055;28;20056;-75
2023/08/01 11:00:44;;;;;;;0.00;0.00;;;;;;;24.99;100.00;99895.09;10504509;28;20476;-76
2023/08/01 11:05:57;;;;;;;0.22;0.00;;;;;;;26.24;100.00;99892.16;10521323;28;20479;-75
2023/08/01 11:11:03;;;;;;;0.10;0.10;;;;;;;26.67;100.00;99900.28;10534860;28;20062;-75
2023/08/01 11:16:06;;;;;;;0.75;0.30;;;;;;;26.81;100.00;99898.69;10503902;28;20044;-76
2023/08/01 11:21:07;;;;;;;0.47;0.30;;;;;;;27.16;100.00;99907.16;10518744;28;20097;-75
2023/08/01 11:26:09;;;;;;;0.57;0.52;;;;;;;26.64;100.00;99910.16;10519211;28;20048;-75
2023/08/01 11:31:12;;;;;;;0.00;0.00;;;;;;;27.46;100.00;99901.00;10502836;28;20055;-76
2023/08/01 11:36:14;;;;;;;0.47;0.28;;;;;;;27.68;100.00;99907.63;10537996;28;20048;-75
2023/08/01 11:41:16;;;;;;;0.00;0.00;;;;;;;26.65;100.00;99918.03;10520035;28;20055;-75
2023/08/01 11:46:18;;;;;;;0.20;0.10;;;;;;;25.98;100.00;99924.28;10520588;28;20036;-75
2023/08/01 11:51:20;;;;;;;0.15;0.03;;;;;;;25.71;100.00;99939.81;10520242;28;20509;-75
2023/08/01 11:56:22;;;;;;;0.00;0.00;;;;;;;26.24;100.00;99932.63;10501721;28;20056;-76
2023/08/01 12:01:25;;;;;;;0.15;0.15;;;;;;;26.62;100.00;99935.84;10498305;28;20064;-76
2023/08/01 12:06:31;;;;;;;0.28;0.00;;;;;;;26.89;100.00;99928.13;10518291;28;20059;-74
2023/08/01 12:11:33;;;;;;;0.00;0.00;;;;;;;25.94;100.00;99938.59;10518700;28;20044;-75
2023/08/01 12:16:37;;;;;;;0.03;0.00;;;;;;;26.95;100.00;99934.84;10518359;28;20052;-75
2023/08/01 12:21:39;;;;;;;0.10;0.00;;;;;;;26.64;100.00;99936.59;10535915;28;20043;-76
2023/08/01 12:26:41;;;;;;;0.10;0.10;;;;;;;25.81;100.00;99946.31;10536585;28;20048;-75
2023/08/01 12:31:45;;;;;;;0.00;0.00;;;;;;;26.60;100.00;99946.47;10535702;28;20502;-76
2023/08/01 12:36:47;;;;;;;0.57;0.57;;;;;;;26.84;100.00;99941.63;10541991;28;20051;-75
2023/08/01 12:41:49;;;;;;;0.00;0.00;;;;;;;26.86;100.00;99942.38;10502930;28;20040;-77
2023/08/01 12:46:51;;;;;;;0.88;0.10;;;;;;;27.46;100.00;99943.31;10527099;28;20721;-76
2023/08/01 12:51:53;;;;;;;0.30;0.10;;;;;;;27.47;100.00;99957.41;10545270;28;20051;-76
2023/08/01 12:56:55;;;;;;;2.25;0.88;;;;;;;26.88;100.00;99966.09;10544892;28;20402;-76
2023/08/01 13:01:57;;;;;;;0.15;0.10;;;;;;;26.36;100.00;99983.03;10526673;28;20559;-76
2023/08/01 13:06:59;;;;;;;0.28;0.17;;;;;;;25.39;100.00;99988.94;10526742;28;20032;-76
2023/08/01 13:12:01;;;;;;;0.63;0.55;;;;;;;25.24;100.00;99986.13;10545075;28;20123;-75
2023/08/01 13:17:02;;;;;;;0.10;0.10;;;;;;;25.32;100.00;100005.03;10541909;28;20123;-75
2023/08/01 13:22:05;;;;;;;0.00;0.00;;;;;;;25.46;100.00;100007.03;10509974;28;20044;-76
2023/08/01 13:27:09;;;;;;;0.00;0.00;;;;;;;25.47;100.00;100002.59;10509604;28;20579;-76
2023/08/01 13:32:11;;;;;;;0.00;0.00;;;;;;;26.05;100.00;100011.06;10525525;28;20074;-76
2023/08/01 13:37:13;;;;;;;0.20;0.20;;;;;;;26.81;100.00;100005.22;10541341;28;20086;-76
2023/08/01 13:42:14;;;;;;;0.10;0.10;;;;;;;26.84;100.00;100007.69;10525062;28;20495;-75
2023/08/01 13:47:16;;;;;;;0.03;0.00;;;;;;;27.07;100.00;100024.88;10525446;28;20817;-76
2023/08/01 13:52:18;;;;;;;0.20;0.20;;;;;;;26.67;100.00;100026.25;10524918;28;20047;-76
2023/08/01 13:57:23;;;;;;;0.32;0.30;;;;;;;26.69;100.00;100035.78;10542663;28;20039;-75
2023/08/01 14:02:25;;;;;;;1.98;0.80;;;;;;;26.84;100.00;100025.31;10513783;28;20079;-75
2023/08/01 14:07:27;;;;;;;0.22;0.20;;;;;;;26.40;100.00;100034.72;10487243;28;20135;-76
2023/08/01 14:12:28;;;;;;;0.00;0.00;;;;;;;26.00;100.00;100032.41;10524395;28;20162;-77
2023/08/01 14:17:30;;;;;;;0.20;0.20;;;;;;;26.51;100.00;100037.66;10507790;28;20054;-76
2023/08/01 14:22:31;;;;;;;0.50;0.45;;;;;;;26.43;100.00;100040.72;10517277;28;20037;-76
2023/08/01 14:27:33;;;;;;;0.10;0.10;;;;;;;25.14;100.00;100056.91;10520603;28;20059;-76
2023/08/01 14:32:37;;;;;;;1.17;0.40;;;;;;;25.48;100.00;100055.25;10541194;28;20039;-77
2023/08/01 14:37:38;;;;;;;0.00;0.00;;;;;;;25.21;100.00;100054.78;10493976;28;20456;-76
2023/08/01 14:42:40;;;;;;;0.00;0.00;;;;;;;25.55;100.00;100057.56;10531394;28;20043;-76
2023/08/01 14:47:43;;;;;;;0.13;0.10;;;;;;;26.76;100.00;100068.03;10488261;28;20070;-76
2023/08/01 14:52:45;;;;;;;0.05;0.05;;;;;;;26.38;100.00;100052.47;10527544;28;20044;-76
2023/08/01 14:57:47;;;;;;;0.10;0.10;;;;;;;25.82;100.00;100055.31;10539482;28;20079;-76
2023/08/01 15:02:49;;;;;;;0.00;0.00;;;;;;;26.16;100.00;100058.88;10539006;28;20043;-76
2023/08/01 15:07:50;;;;;;;0.00;0.00;;;;;;;26.08;100.00;100051.38;10521051;28;20044;-75
2023/08/01 15:12:53;;;;;;;0.00;0.00;;;;;;;26.57;100.00;100047.88;10505364;28;20059;-76
2023/08/01 15:17:55;;;;;;;0.10;0.10;;;;;;;26.02;100.00;100045.53;10516891;28;20044;-76
2023/08/01 15:22:56;;;;;;;0.00;0.00;;;;;;;26.27;100.00;100051.25;10504870;28;20093;-75
2023/08/01 15:27:58;;;;;;;2.05;0.45;;;;;;;26.12;100.00;100049.41;10512249;28;20058;-76
2023/08/01 15:32:59;;;;;;;0.00;0.00;;;;;;;26.54;100.00;100053.34;10521522;28;20075;-76
2023/08/01 15:38:03;;;;;;;0.00;0.00;;;;;;;26.22;100.00;100055.91;10521431;28;20044;-77
2023/08/01 15:43:05;;;;;;;0.10;0.05;;;;;;;26.65;100.00;100057.16;10504764;28;20046;-75
2023/08/01 15:48:06;;;;;;;0.00;0.00;;;;;;;25.45;100.00;100078.28;10504768;28;20131;-76
2023/08/01 15:53:08;;;;;;;0.05;0.00;;;;;;;24.96;100.00;100086.75;10505236;28;20206;-76
2023/08/01 15:58:09;;;;;;;0.00;0.00;;;;;;;25.09;100.00;100087.03;10504457;28;20052;-75
2023/08/01 16:03:11;;;;;;;0.10;0.10;;;;;;;25.02;100.00;100084.69;10521304;28;20049;-76
2023/08/01 16:08:13;;;;;;;0.13;0.10;;;;;;;24.79;100.00;100090.19;10538500;28;20048;-76
2023/08/01 16:13:15;;;;;;;0.10;0.10;;;;;;;25.00;100.00;100102.34;10504449;28;20044;-76
2023/08/01 16:18:17;;;;;;;0.45;0.20;;;;;;;24.78;100.00;100099.88;10522970;28;20083;-77
2023/08/01 16:23:19;;;;;;;0.00;0.00;;;;;;;25.18;100.00;100102.41;10545704;28;20040;-76
2023/08/01 16:28:20;;;;;;;0.10;0.08;;;;;;;25.02;100.00;100103.13;10511672;28;20052;-75
2023/08/01 16:33:47;;;;;;;6.22;0.45;;;;;;;25.20;100.00;100105.81;10527798;28;20051;-76
2023/08/01 16:38:49;;;;;;;0.10;0.00;;;;;;;25.42;100.00;100107.44;10544645;28;20078;-75
2023/08/01 16:43:51;;;;;;;0.20;0.10;;;;;;;23.99;100.00;100121.75;10545707;28;20040;-76
2023/08/01 16:48:52;;;;;;;0.45;0.13;;;;;;;23.96;100.00;100137.63;10533754;28;20051;-75
2023/08/01 16:53:54;;;;;;;0.03;0.00;;;;;;;23.99;100.00;100129.63;10546023;28;20068;-76
2023/08/01 16:58:56;;;;;;;0.10;0.10;;;;;;;24.21;100.00;100147.13;10528038;28;20542;-76
2023/08/01 17:03:57;;;;;;;0.13;0.05;;;;;;;23.52;100.00;100175.34;10510787;28;20392;-77
2023/08/01 17:08:59;;;;;;;0.80;0.15;;;;;;;22.55;100.00;100185.06;10510460;28;20036;-76
2023/08/01 17:14:01;;;;;;;0.20;0.20;;;;;;;22.88;100.00;100166.34;10530981;28;20485;-77
2023/08/01 17:19:03;;;;;;;0.10;0.10;;;;;;;22.12;100.00;100160.25;10509740;28;20047;-76
2023/08/01 17:24:05;;;;;;;0.00;0.00;;;;;;;22.09;100.00;100176.13;10525613;28;20517;-76
2023/08/01 17:29:07;;;;;;;0.10;0.10;;;;;;;22.29;100.00;100165.78;10509673;28;20044;-76
2023/08/01 17:34:09;;;;;;;0.10;0.10;;;;;;;23.14;100.00;100165.38;10518568;28;20055;-76
2023/08/01 17:39:11;;;;;;;0.20;0.20;;;;;;;22.87;100.00;100163.78;10524891;28;20473;-76
2023/08/01 17:44:13;;;;;;;0.08;0.08;;;;;;;23.32;100.00;100167.38;10532543;28;20551;-76
2023/08/01 17:49:15;;;;;;;0.20;0.20;;;;;;;23.68;100.00;100162.44;10526985;28;20040;-75
2023/08/01 17:54:17;;;;;;;0.00;0.00;;;;;;;24.13;100.00;100157.97;10541756;28;20048;-75
2023/08/01 17:59:19;;;;;;;0.00;0.00;;;;;;;23.99;100.00;100155.94;10513424;28;20031;-76
2023/08/01 18:04:21;;;;;;;0.00;0.00;;;;;;;24.28;100.00;100153.84;10537015;28;20495;-76
2023/08/01 18:09:23;;;;;;;0.90;0.52;;;;;;;24.01;100.00;100167.25;10523657;28;20097;-76
2023/08/01 18:14:24;;;;;;;0.00;0.00;;;;;;;24.92;100.00;100161.59;10507561;28;20051;-75
2023/08/01 18:19:26;;;;;;;0.00;0.00;;;;;;;24.30;100.00;100159.91;10502879;28;20040;-76
2023/08/01 18:24:30;;;;;;;0.00;0.00;;;;;;;24.50;100.00;100156.38;10503331;28;20139;-76
2023/08/01 18:29:32;;;;;;;0.10;0.10;;;;;;;24.52;100.00;100159.78;10505713;28;20055;-76
2023/08/01 18:34:36;;;;;;;0.00;0.00;;;;;;;24.02;100.00;100153.16;10539753;28;20084;-76
2023/08/01 18:39:38;;;;;;;0.00;0.00;;;;;;;23.58;100.00;100175.09;10507491;28;20050;-75
2023/08/01 18:44:40;;;;;;;0.00;0.00;;;;;;;23.72;100.00;100171.91;10506221;28;20044;-76
2023/08/01 18:49:41;;;;;;;0.00;0.00;;;;;;;24.02;100.00;100168.94;10522904;28;20039;-76
2023/08/01 18:54:44;;;;;;;0.13;0.10;;;;;;;23.52;100.00;100180.59;10522573;28;20062;-76
2023/08/01 18:59:45;;;;;;;0.32;0.20;;;;;;;23.89;100.00;100184.38;10522153;28;20039;-76
2023/08/01 19:04:47;;;;;;;0.00;0.00;;;;;;;23.34;100.00;100189.19;10521514;28;20048;-76
2023/08/01 19:09:49;;;;;;;0.00;0.00;;;;;;;23.77;100.00;100203.28;10521773;28;20068;-75
2023/08/01 19:14:51;;;;;;;0.00;0.00;;;;;;;23.88;100.00;100213.34;10518345;28;20046;-76
2023/08/01 19:19:52;;;;;;;0.00;0.00;;;;;;;23.56;100.00;100210.25;10504832;28;20479;-76
2023/08/01 19:24:54;;;;;;;0.10;0.10;;;;;;;23.86;100.00;100223.09;10522674;28;20044;-76
2023/08/01 19:29:56;;;;;;;0.03;0.00;;;;;;;23.68;100.00;100217.66;10521039;28;20044;-75
2023/08/01 19:34:58;;;;;;;0.38;0.38;;;;;;;23.83;100.00;100217.97;10504202;28;20082;-76
2023/08/01 19:40:00;;;;;;;0.05;0.05;;;;;;;23.70;100.00;100215.81;10520532;28;20040;-76
2023/08/01 19:45:03;;;;;;;0.10;0.10;;;;;;;24.10;100.00;100213.38;10520098;28;20062;-76
2023/08/01 19:50:08;;;;;;;0.20;0.00;;;;;;;24.80;100.00;100213.91;10479830;28;20052;-75
2023/08/01 19:55:10;;;;;;;0.00;0.00;;;;;;;24.01;100.00;100229.53;10538720;28;20052;-76
2023/08/01 20:00:11;;;;;;;0.05;0.05;;;;;;;24.30;100.00;100228.34;10520744;28;20068;-76
2023/08/01 20:05:13;;;;;;;0.00;0.00;;;;;;;24.14;100.00;100225.47;10521137;28;20059;-76
2023/08/01 20:10:15;;;;;;;0.00;0.00;;;;;;;24.04;100.00;100225.00;10503949;28;20485;-75
2023/08/01 20:15:16;;;;;;;0.05;0.05;;;;;;;23.94;100.00;100234.19;10520189;28;20044;-76
2023/08/01 20:20:20;;;;;;;0.00;0.00;;;;;;;24.19;100.00;100227.91;10503919;28;20047;-75
2023/08/01 20:25:21;;;;;;;0.00;0.00;;;;;;;23.84;100.00;100228.41;10536719;28;20537;-76
2023/08/01 20:30:23;;;;;;;0.30;0.10;;;;;;;23.62;100.00;100223.16;10537952;28;20044;-76
2023/08/01 20:35:25;;;;;;;0.00;0.00;;;;;;;23.71;100.00;100228.06;10520842;28;20075;-76
2023/08/01 20:40:30;;;;;;;0.10;0.10;;;;;;;24.13;100.00;100222.91;10519608;28;20139;-75
2023/08/01 20:45:31;;;;;;;0.15;0.10;;;;;;;24.12;100.00;100216.81;10531010;28;20054;-77
2023/08/01 20:50:33;;;;;;;0.00;0.00;;;;;;;24.04;100.00;100224.16;10519257;28;20040;-76
2023/08/01 20:55:35;;;;;;;0.57;0.47;;;;;;;23.26;100.00;100219.25;10499236;28;20422;-76
2023/08/01 21:00:36;;;;;;;0.28;0.20;;;;;;;23.16;100.00;100217.00;10519895;28;20044;-75
2023/08/01 21:05:38;;;;;;;0.00;0.00;;;;;;;23.19;100.00;100211.69;10519658;28;20082;-75
2023/08/01 21:10:40;;;;;;;0.28;0.10;;;;;;;23.24;100.00;100207.09;10545018;28;20459;-76
2023/08/01 21:15:41;;;;;;;0.10;0.10;;;;;;;23.58;100.00;100213.66;10533263;28;20040;-76
2023/08/01 21:20:43;;;;;;;0.55;0.25;;;;;;;23.26;100.00;100210.53;10535482;28;20051;-75
2023/08/01 21:25:45;;;;;;;0.00;0.00;;;;;;;23.38;100.00;100204.78;10495081;28;20055;-75
2023/08/01 21:30:46;;;;;;;0.10;0.10;;;;;;;23.27;100.00;100207.00;10526161;28;20502;-76
2023/08/01 21:35:48;;;;;;;0.47;0.32;;;;;;;23.17;100.00;100210.84;10526287;28;20510;-75
2023/08/01 21:40:50;;;;;;;0.05;0.05;;;;;;;23.10;100.00;100213.69;10525973;28;20562;-76
2023/08/01 21:45:59;;;;;;;1.50;0.30;;;;;;;23.08;100.00;100204.16;10526001;28;20040;-76
2023/08/01 21:51:01;;;;;;;;;;;;;;;22.99;100.00;100202.72;10528425;28;20047;-76
2023/08/01 21:56:03;;;;;;;0.30;0.30;;;;;;;22.80;100.00;100208.66;10542463;28;19927;-76
2023/08/01 22:01:05;;;;;;;0.73;0.25;;;;;;;23.03;100.00;100204.34;10531409;28;20044;-75
2023/08/01 22:06:06;;;;;;;0.10;0.10;;;;;;;22.63;100.00;100206.66;10525067;28;20055;-76
2023/08/01 22:11:08;;;;;;;0.82;0.82;;;;;;;22.87;100.00;100197.94;10491701;28;20044;-76
2023/08/01 22:16:10;;;;;;;0.10;0.10;;;;;;;22.99;100.00;100197.47;10507473;28;20091;-75
2023/08/01 22:21:11;;;;;;;1.25;0.10;;;;;;;22.72;100.00;100209.84;10524665;28;20040;-75
2023/08/01 22:26:13;;;;;;;0.20;0.20;;;;;;;22.34;100.00;100211.09;10524870;28;20411;-76
2023/08/01 22:31:15;;;;;;;0.00;0.00;;;;;;;22.54;100.00;100200.84;10524211;28;20048;-76
2023/08/01 22:36:16;;;;;;;0.00;0.00;;;;;;;22.11;100.00;100198.75;10498012;28;20044;-75
2023/08/01 22:41:19;;;;;;;0.65;0.22;;;;;;;21.82;100.00;100197.06;10542014;28;20120;-75
2023/08/01 22:46:20;;;;;;;0.63;0.15;;;;;;;21.62;100.00;100203.81;10507340;28;20060;-76
2023/08/01 22:51:23;;;;;;;2.47;1.27;;;;;;;21.55;100.00;100200.53;10506772;28;20474;-76
2023/08/01 22:56:24;;;;;;;0.10;0.10;;;;;;;21.09;100.00;100201.91;10509391;28;20051;-76
2023/08/01 23:01:27;;;;;;;0.15;0.15;;;;;;;21.42;100.00;100204.41;10507360;28;20056;-76